createdAt,value
2019-01-19T00:02:22.497Z,59.04
2019-01-19T00:06:44.354Z,59.22
2019-01-19T00:11:40.199Z,59.24
2019-01-19T00:15:58.641Z,59.38
2019-01-19T00:20:45.496Z,59.59
2019-01-19T00:25:01.336Z,59.61
2019-01-19T00:29:24.498Z,59.94
2019-01-19T00:34:07.990Z,60.32
2019-01-19T00:38:56.885Z,60.60
2019-01-19T00:43:26.489Z,60.83
2019-01-19T00:47:41.198Z,60.76
2019-01-19T00:52:22.213Z,60.80
2019-01-19T00:56:40.318Z,60.83
2019-01-19T01:01:24.003Z,60.80
2019-01-19T01:05:42.818Z,60.55
2019-01-19T01:10:00.605Z,60.61
2019-01-19T01:14:48.850Z,60.83
2019-01-19T01:19:33.411Z,60.80
2019-01-19T01:24:27.692Z,60.88
2019-01-19T01:29:07.864Z,60.97
2019-01-19T01:33:49.355Z,60.76
2019-01-19T01:37:59.579Z,60.73
2019-01-19T01:42:29.282Z,60.88
2019-01-19T01:47:12.700Z,60.78
2019-01-19T01:51:28.212Z,60.81
2019-01-19T01:55:44.760Z,60.80
2019-01-19T02:00:22.615Z,61.03
2019-01-19T02:05:09.300Z,60.79
2019-01-19T02:10:00.423Z,60.97
2019-01-19T02:14:30.307Z,61.32
2019-01-19T02:19:23.214Z,61.25
2019-01-19T02:23:48.113Z,61.28
2019-01-19T02:28:03.312Z,61.14
2019-01-19T02:32:38.378Z,61.14
2019-01-19T02:37:20.781Z,61.36
2019-01-19T02:42:03.895Z,61.59
2019-01-19T02:46:56.830Z,61.63
2019-01-19T02:51:47.811Z,61.43
2019-01-19T02:56:09.643Z,61.49
2019-01-19T03:00:58.169Z,61.80
2019-01-19T03:05:37.205Z,61.85
2019-01-19T03:10:13.413Z,61.79
2019-01-19T03:14:39.294Z,61.83
2019-01-19T03:19:09.126Z,61.85
2019-01-19T03:23:37.511Z,61.95
2019-01-19T03:28:18.535Z,62.05
2019-01-19T03:33:08.667Z,61.88
2019-01-19T03:38:04.135Z,62.04
2019-01-19T03:42:42.803Z,62.06
2019-01-19T03:47:23.568Z,61.98
2019-01-19T03:51:36.134Z,62.11
2019-01-19T03:56:39.565Z,62.23
2019-01-19T04:01:13.562Z,62.29
2019-01-19T04:05:50.127Z,62.36
2019-01-19T04:10:12.297Z,62.38
2019-01-19T04:14:44.639Z,62.19
2019-01-19T04:19:27.182Z,62.24
2019-01-19T04:23:31.623Z,62.27
2019-01-19T04:27:35.772Z,62.35
2019-01-19T04:31:40.082Z,62.48
2019-01-19T04:35:44.309Z,62.46
2019-01-19T04:39:48.500Z,62.58
2019-01-19T04:43:52.705Z,62.72
2019-01-19T04:47:57.175Z,62.82
2019-01-19T04:52:01.747Z,63.09
2019-01-19T04:56:05.980Z,63.24
2019-01-19T05:00:14.326Z,63.26
2019-01-19T05:04:18.471Z,63.19
2019-01-19T05:08:22.650Z,63.26
2019-01-19T05:12:26.824Z,63.14
2019-01-19T05:16:30.988Z,63.18
2019-01-19T05:20:36.133Z,63.34
2019-01-19T05:24:40.272Z,63.48
2019-01-19T05:28:44.457Z,63.53
2019-01-19T05:32:48.920Z,63.58
2019-01-19T05:36:53.046Z,63.67
2019-01-19T05:40:57.238Z,63.76
2019-01-19T05:45:01.466Z,63.82
2019-01-19T05:49:05.755Z,63.79
2019-01-19T05:53:10.259Z,63.75
2019-01-19T05:57:14.489Z,63.74
2019-01-19T06:01:18.912Z,63.79
2019-01-19T06:05:23.070Z,63.79
2019-01-19T06:09:27.349Z,63.79
2019-01-19T06:13:31.561Z,63.75
2019-01-19T06:17:35.799Z,63.79
2019-01-19T06:21:48.628Z,63.84
2019-01-19T06:30:02.176Z,63.72
2019-01-19T06:34:06.417Z,63.77
2019-01-19T06:38:10.614Z,63.81
2019-01-19T06:42:14.792Z,63.80
2019-01-19T06:46:18.933Z,63.84
2019-01-19T06:50:23.117Z,63.80
2019-01-19T06:54:28.049Z,63.83
2019-01-19T06:58:32.238Z,63.89
2019-01-19T07:02:36.433Z,63.99
2019-01-19T07:06:40.844Z,64.01
2019-01-19T07:10:45.048Z,64.22
2019-01-19T07:14:49.178Z,64.39
2019-01-19T07:18:53.472Z,64.47
2019-01-19T07:22:57.898Z,64.57
2019-01-19T07:27:02.057Z,64.77
2019-01-19T07:31:06.328Z,64.88
2019-01-19T07:35:10.515Z,64.98
2019-01-19T07:39:14.721Z,65.04
2019-01-19T07:43:19.487Z,65.18
2019-01-19T07:47:23.997Z,65.32
2019-01-19T07:51:28.445Z,65.39
2019-01-19T07:55:32.627Z,65.46
2019-01-19T07:59:37.097Z,66.30
2019-01-19T08:03:41.233Z,66.24
2019-01-19T08:07:45.421Z,66.89
2019-01-19T08:11:49.633Z,68.12
2019-01-19T08:15:53.821Z,66.94
2019-01-19T08:19:58.009Z,66.59
2019-01-19T08:24:02.705Z,66.48
2019-01-19T08:28:06.832Z,66.44
2019-01-19T08:32:11.020Z,66.47
2019-01-19T08:36:15.225Z,66.56
2019-01-19T08:40:21.707Z,66.61
2019-01-19T08:44:25.878Z,66.52
2019-01-19T08:48:30.021Z,66.56
2019-01-19T08:52:34.323Z,66.72
2019-01-19T08:56:38.490Z,66.81
2019-01-19T09:00:43.033Z,66.89
2019-01-19T09:04:47.239Z,66.90
2019-01-19T09:08:51.473Z,66.74
2019-01-19T09:12:55.710Z,66.61
2019-01-19T09:16:59.912Z,66.68
2019-01-19T09:21:04.351Z,66.62
2019-01-19T09:25:10.216Z,66.43
2019-01-19T09:29:14.423Z,66.41
2019-01-19T09:33:18.614Z,66.46
2019-01-19T09:37:22.831Z,66.21
2019-01-19T09:41:26.996Z,66.28
2019-01-19T09:45:32.626Z,66.89
2019-01-19T09:49:36.909Z,66.65
2019-01-19T09:53:41.067Z,66.72
2019-01-19T09:57:45.446Z,66.55
2019-01-19T10:01:49.658Z,66.82
2019-01-19T10:05:53.869Z,66.85
2019-01-19T10:09:58.089Z,67.02
2019-01-19T10:14:02.678Z,66.93
2019-01-19T10:18:08.069Z,66.86
2019-01-19T10:22:12.267Z,66.76
2019-01-19T10:26:16.478Z,66.73
2019-01-19T10:30:22.747Z,66.76
2019-01-19T10:34:26.933Z,66.40
2019-01-19T10:38:31.213Z,66.37
2019-01-19T10:42:35.407Z,66.30
2019-01-19T10:46:39.593Z,66.43
2019-01-19T10:50:43.739Z,66.39
2019-01-19T10:54:47.932Z,66.18
2019-01-19T10:58:52.221Z,65.92
2019-01-19T11:02:56.932Z,65.73
2019-01-19T11:07:01.224Z,65.85
2019-01-19T11:11:05.515Z,66.02
2019-01-19T11:15:11.431Z,66.23
2019-01-19T11:19:15.643Z,66.02
2019-01-19T11:23:19.818Z,66.03
2019-01-19T11:27:23.950Z,66.05
2019-01-19T11:31:28.508Z,65.86
2019-01-19T11:35:32.786Z,65.88
2019-01-19T11:39:36.984Z,65.67
2019-01-19T11:43:41.128Z,65.46
2019-01-19T11:47:46.419Z,65.30
2019-01-19T11:51:50.597Z,65.41
2019-01-19T11:55:54.746Z,65.45
2019-01-19T11:59:59.025Z,65.24
2019-01-19T12:04:03.144Z,65.19
2019-01-19T12:08:08.422Z,65.09
2019-01-19T12:12:12.649Z,65.22
2019-01-19T12:16:16.818Z,64.96
2019-01-19T12:20:27.012Z,64.70
2019-01-19T12:24:31.190Z,64.60
2019-01-19T12:28:35.434Z,64.66
2019-01-19T12:32:39.924Z,64.77
2019-01-19T12:36:44.156Z,64.48
2019-01-19T12:40:48.334Z,64.61
2019-01-19T12:44:52.607Z,64.68
2019-01-19T12:48:56.871Z,64.67
2019-01-19T12:53:01.064Z,64.68
2019-01-19T12:57:05.356Z,64.69
2019-01-19T13:01:09.550Z,64.75
2019-01-19T13:05:35.179Z,65.38
2019-01-19T13:09:48.355Z,65.60
2019-01-19T13:13:52.595Z,64.87
2019-01-19T13:18:27.352Z,64.66
2019-01-19T13:23:07.303Z,64.49
2019-01-19T13:27:37.987Z,64.52
2019-01-19T13:31:54.137Z,64.34
2019-01-19T13:36:48.354Z,64.42
2019-01-19T13:41:36.476Z,64.62
2019-01-19T13:46:01.423Z,64.72
2019-01-19T13:50:46.559Z,64.70
2019-01-19T13:55:30.867Z,64.67
2019-01-19T13:59:59.552Z,64.77
2019-01-19T14:04:39.514Z,64.84
2019-01-19T14:09:33.855Z,64.92
2019-01-19T14:14:21.947Z,64.89
2019-01-19T14:19:31.263Z,64.89
2019-01-19T14:24:09.278Z,65.21
2019-01-19T14:29:00.253Z,65.04
2019-01-19T14:33:51.217Z,65.13
2019-01-19T14:38:56.911Z,65.08
2019-01-19T14:43:50.159Z,65.36
2019-01-19T14:48:45.282Z,65.37
2019-01-19T14:53:24.901Z,65.49
2019-01-19T14:58:13.357Z,65.87
2019-01-19T15:03:02.974Z,65.79
2019-01-19T15:07:25.515Z,66.07
2019-01-19T15:11:53.438Z,66.31
2019-01-19T15:16:50.391Z,66.03
2019-01-19T15:21:51.080Z,66.17
2019-01-19T15:26:39.171Z,66.23
2019-01-19T15:31:08.113Z,66.22
2019-01-19T15:36:06.703Z,66.38
2019-01-19T15:40:58.101Z,66.46
2019-01-19T15:45:48.925Z,66.34
2019-01-19T15:50:22.850Z,66.43
2019-01-19T15:55:20.148Z,66.45
2019-01-19T16:00:01.256Z,66.25
2019-01-19T16:05:02.098Z,66.24
2019-01-19T16:09:48.880Z,66.38
2019-01-19T16:14:22.464Z,66.43
2019-01-19T16:18:54.700Z,66.44
2019-01-19T16:23:49.172Z,66.41
2019-01-19T16:28:09.312Z,66.63
2019-01-19T16:33:00.140Z,66.75
2019-01-19T16:37:23.782Z,66.69
2019-01-19T16:41:52.714Z,66.96
2019-01-19T16:46:44.686Z,66.93
2019-01-19T16:51:27.905Z,67.17
2019-01-19T16:56:07.057Z,67.06
2019-01-19T17:01:16.300Z,67.39
2019-01-19T17:06:02.151Z,67.82
2019-01-19T17:10:47.345Z,67.51
2019-01-19T17:15:19.418Z,67.64
2019-01-19T17:19:46.230Z,67.93
2019-01-19T17:24:22.022Z,67.88
2019-01-19T17:28:51.746Z,68.44
2019-01-19T17:33:21.744Z,68.22
2019-01-19T17:38:11.865Z,68.46
2019-01-19T17:42:49.002Z,68.71
2019-01-19T17:47:30.805Z,69.01
2019-01-19T17:52:34.024Z,68.97
2019-01-19T17:56:47.098Z,69.15
2019-01-19T18:01:45.238Z,69.41
2019-01-19T18:06:10.922Z,69.46
2019-01-19T18:11:13.821Z,69.43
2019-01-19T18:15:58.310Z,69.43
2019-01-19T18:20:29.661Z,69.52
2019-01-19T18:25:04.046Z,69.94
2019-01-19T18:29:51.811Z,70.31
2019-01-19T18:34:44.185Z,69.96
2019-01-19T18:39:09.388Z,70.08
2019-01-19T18:43:40.866Z,70.12
2019-01-19T18:48:02.905Z,69.96
2019-01-19T18:52:43.784Z,70.41
2019-01-19T18:57:43.153Z,70.52
2019-01-19T19:02:23.941Z,70.26
2019-01-19T19:07:12.210Z,70.29
2019-01-19T19:11:51.694Z,70.10
2019-01-19T19:16:39.886Z,70.34
2019-01-19T19:21:22.211Z,70.29
2019-01-19T19:26:10.416Z,70.20
2019-01-19T19:30:53.301Z,70.45
2019-01-19T19:35:56.488Z,70.43
2019-01-19T19:40:33.098Z,70.38
2019-01-19T19:45:20.393Z,70.59
2019-01-19T19:50:17.695Z,70.68
2019-01-19T19:54:21.877Z,70.60
2019-01-19T19:58:26.064Z,70.81
2019-01-19T20:02:30.216Z,70.84
2019-01-19T20:06:34.385Z,71.01
2019-01-19T20:10:38.568Z,71.20
2019-01-19T20:14:42.710Z,71.12
2019-01-19T20:18:47.224Z,71.26
2019-01-19T20:22:51.402Z,71.35
2019-01-19T20:26:55.527Z,71.35
2019-01-19T20:30:59.695Z,71.75
2019-01-19T20:35:03.861Z,71.42
2019-01-19T20:39:09.901Z,71.80
2019-01-19T20:43:14.113Z,71.67
2019-01-19T20:47:19.265Z,72.21
2019-01-19T20:51:23.450Z,71.76
2019-01-19T20:55:27.568Z,71.92
2019-01-19T20:59:31.780Z,71.98
2019-01-19T21:03:35.898Z,72.13
2019-01-19T21:07:40.108Z,72.09
2019-01-19T21:11:44.281Z,72.29
2019-01-19T21:15:49.420Z,72.24
2019-01-19T21:19:53.597Z,72.09
2019-01-19T21:23:57.770Z,72.14
2019-01-19T21:28:01.989Z,72.21
2019-01-19T21:32:06.159Z,72.15
2019-01-19T21:36:10.658Z,72.18
2019-01-19T21:40:15.088Z,72.38
2019-01-19T21:44:19.257Z,72.51
2019-01-19T21:48:23.389Z,72.33
2019-01-19T21:52:27.595Z,72.26
2019-01-19T21:56:31.751Z,72.30
2019-01-19T22:00:36.920Z,72.39
2019-01-19T22:04:41.089Z,72.22
2019-01-19T22:08:45.261Z,72.22
2019-01-19T22:12:50.438Z,72.30
2019-01-19T22:16:54.625Z,72.16
2019-01-19T22:20:58.789Z,72.24
2019-01-19T22:25:02.916Z,72.11
2019-01-19T22:29:08.703Z,72.23
2019-01-19T22:33:13.668Z,72.15
2019-01-19T22:37:17.894Z,72.19
2019-01-19T22:41:22.038Z,72.27
2019-01-19T22:45:26.220Z,72.14
2019-01-19T22:49:31.388Z,72.40
2019-01-19T22:53:35.598Z,72.17
2019-01-19T22:57:39.858Z,72.33
2019-01-19T23:01:58.545Z,72.73
2019-01-19T23:06:02.700Z,72.44
2019-01-19T23:10:07.582Z,72.53
2019-01-19T23:14:12.216Z,72.65
2019-01-19T23:18:16.439Z,72.56
2019-01-19T23:22:21.787Z,72.63
2019-01-19T23:26:26.133Z,72.62
2019-01-19T23:30:30.314Z,72.69
2019-01-19T23:34:34.439Z,72.88
2019-01-19T23:38:38.630Z,72.83
2019-01-19T23:42:47.058Z,72.99
2019-01-19T23:46:48.757Z,73.18
2019-01-19T23:50:54.933Z,73.04
2019-01-19T23:54:59.112Z,73.26
2019-01-19T23:59:03.281Z,73.09
